createdAt,value
2017-02-28T00:00:36.004Z,0
2017-02-28T00:01:16.475Z,0
2017-02-28T00:01:56.932Z,0
2017-02-28T00:02:37.457Z,0
2017-02-28T00:03:17.989Z,0
2017-02-28T00:03:58.442Z,0
2017-02-28T00:04:38.932Z,0
2017-02-28T00:05:19.444Z,0
2017-02-28T00:06:01.861Z,0
2017-02-28T00:06:42.329Z,0
2017-02-28T00:07:24.767Z,0
2017-02-28T00:08:05.261Z,0
2017-02-28T00:08:45.730Z,0
2017-02-28T00:09:26.221Z,0
2017-02-28T00:10:06.706Z,0
2017-02-28T00:10:47.172Z,0
2017-02-28T00:11:27.665Z,0
2017-02-28T00:12:08.134Z,0
2017-02-28T00:12:48.664Z,0
2017-02-28T00:13:29.098Z,0
2017-02-28T00:14:09.577Z,0
2017-02-28T00:14:50.074Z,0
2017-02-28T00:15:30.533Z,0
2017-02-28T00:16:11.103Z,0
2017-02-28T00:16:51.588Z,0
2017-02-28T00:17:32.114Z,0
2017-02-28T00:18:12.605Z,0
2017-02-28T00:18:53.088Z,0
2017-02-28T00:19:33.598Z,0
2017-02-28T00:20:14.064Z,0
2017-02-28T00:20:54.594Z,0
2017-02-28T00:21:35.081Z,0
2017-02-28T00:22:15.584Z,0
2017-02-28T00:22:56.077Z,0
2017-02-28T00:23:36.573Z,0
2017-02-28T00:24:17.109Z,0
2017-02-28T00:24:57.636Z,0
2017-02-28T00:25:38.190Z,0
2017-02-28T00:26:18.608Z,0
2017-02-28T00:26:59.263Z,0
2017-02-28T00:27:39.686Z,0
2017-02-28T00:28:20.162Z,0
2017-02-28T00:29:00.693Z,0
2017-02-28T00:29:41.140Z,0
2017-02-28T00:30:21.634Z,0
2017-02-28T00:31:02.127Z,0
2017-02-28T00:31:42.626Z,0
2017-02-28T00:32:23.082Z,0
2017-02-28T00:33:03.575Z,0
2017-02-28T00:33:44.055Z,0
2017-02-28T00:34:24.534Z,0
2017-02-28T00:35:05.030Z,0
2017-02-28T00:35:45.499Z,0
2017-02-28T00:36:25.989Z,0
2017-02-28T00:37:06.468Z,0
2017-02-28T00:37:46.973Z,0
2017-02-28T00:38:27.434Z,0
2017-02-28T00:39:07.962Z,0
2017-02-28T00:39:48.492Z,0
2017-02-28T00:40:28.917Z,0
2017-02-28T00:41:09.417Z,0
2017-02-28T00:41:49.819Z,0
2017-02-28T00:42:30.287Z,0
2017-02-28T00:43:10.809Z,0
2017-02-28T00:43:51.245Z,0
2017-02-28T00:44:31.759Z,0
2017-02-28T00:45:12.267Z,0
2017-02-28T00:45:52.928Z,0
2017-02-28T00:46:33.381Z,0
2017-02-28T00:47:13.864Z,0
2017-02-28T00:47:54.355Z,0
2017-02-28T00:48:34.847Z,0
2017-02-28T00:49:15.364Z,0
2017-02-28T00:49:55.858Z,0
2017-02-28T00:50:36.334Z,0
2017-02-28T00:51:16.842Z,0
2017-02-28T00:51:57.300Z,0
2017-02-28T00:52:37.867Z,0
2017-02-28T00:53:18.371Z,0
2017-02-28T00:53:58.861Z,0
2017-02-28T00:54:39.334Z,0
2017-02-28T00:55:19.871Z,0
2017-02-28T00:56:00.330Z,0
2017-02-28T00:56:40.818Z,0
2017-02-28T00:57:21.296Z,0
2017-02-28T00:58:01.816Z,0
2017-02-28T00:58:42.322Z,0
2017-02-28T00:59:22.803Z,0
2017-02-28T01:00:03.217Z,0
2017-02-28T01:00:43.669Z,0
2017-02-28T01:01:24.304Z,0
2017-02-28T01:02:04.651Z,0
2017-02-28T01:02:45.147Z,0
2017-02-28T01:03:25.618Z,0
2017-02-28T01:04:06.110Z,0
2017-02-28T01:04:46.604Z,0
2017-02-28T01:05:27.055Z,0
2017-02-28T01:06:07.567Z,0
2017-02-28T01:06:48.015Z,0
2017-02-28T01:07:28.501Z,0
2017-02-28T01:08:08.992Z,0
2017-02-28T01:08:49.528Z,0
2017-02-28T01:09:29.987Z,0
2017-02-28T01:10:10.493Z,0
2017-02-28T01:10:50.939Z,0
2017-02-28T01:11:31.421Z,0
2017-02-28T01:12:11.940Z,0
2017-02-28T01:12:52.418Z,0
2017-02-28T01:13:32.937Z,0
2017-02-28T01:14:13.371Z,0
2017-02-28T01:14:53.877Z,0
2017-02-28T01:15:34.404Z,0
2017-02-28T01:16:14.929Z,0
2017-02-28T01:16:55.381Z,0
2017-02-28T01:17:35.955Z,0
2017-02-28T01:18:16.457Z,0
2017-02-28T01:18:56.899Z,0
2017-02-28T01:19:37.386Z,0
2017-02-28T01:20:17.844Z,0
2017-02-28T01:20:58.350Z,0
2017-02-28T01:21:38.904Z,0
2017-02-28T01:22:19.321Z,0
2017-02-28T01:22:59.822Z,0
2017-02-28T01:23:40.305Z,0
2017-02-28T01:24:20.794Z,0
2017-02-28T01:25:01.280Z,0
2017-02-28T01:25:41.772Z,0
2017-02-28T01:26:22.342Z,0
2017-02-28T01:27:02.918Z,0
2017-02-28T01:27:43.388Z,0
2017-02-28T01:28:23.919Z,0
2017-02-28T01:29:04.380Z,0
2017-02-28T01:29:44.860Z,0
2017-02-28T01:30:25.375Z,0
2017-02-28T01:31:05.883Z,0
2017-02-28T01:31:46.372Z,0
2017-02-28T01:32:26.919Z,0
2017-02-28T01:33:07.386Z,0
2017-02-28T01:33:47.858Z,0
2017-02-28T01:34:28.311Z,0
2017-02-28T01:35:08.836Z,0
2017-02-28T01:35:49.333Z,0
2017-02-28T01:36:29.816Z,0
2017-02-28T01:37:10.276Z,0
2017-02-28T01:37:50.821Z,0
2017-02-28T01:38:31.293Z,0
2017-02-28T01:39:11.795Z,0
2017-02-28T01:39:52.262Z,0
2017-02-28T01:40:32.761Z,0
2017-02-28T01:41:13.228Z,0
2017-02-28T01:41:53.718Z,0
2017-02-28T01:42:34.233Z,0
2017-02-28T01:43:14.772Z,0
2017-02-28T01:43:55.293Z,0
2017-02-28T01:44:35.718Z,0
2017-02-28T01:45:16.232Z,0
2017-02-28T01:45:56.727Z,0
2017-02-28T01:46:37.272Z,0
2017-02-28T01:47:17.720Z,0
2017-02-28T01:47:58.242Z,0
2017-02-28T01:48:38.729Z,0
2017-02-28T01:49:19.238Z,0
2017-02-28T01:49:59.840Z,0
2017-02-28T01:50:40.356Z,0
2017-02-28T01:51:20.814Z,0
2017-02-28T01:52:01.302Z,0
2017-02-28T01:52:41.751Z,0
2017-02-28T01:53:22.288Z,0
2017-02-28T01:54:02.746Z,0
2017-02-28T01:54:43.210Z,0
2017-02-28T01:55:23.657Z,0
2017-02-28T01:56:04.137Z,0
2017-02-28T01:56:44.633Z,0
2017-02-28T01:57:25.082Z,0
2017-02-28T01:58:05.602Z,0
2017-02-28T01:58:46.141Z,0
2017-02-28T01:59:26.592Z,0
2017-02-28T02:00:07.120Z,0
2017-02-28T02:00:48.564Z,0
2017-02-28T02:01:29.078Z,0
2017-02-28T02:02:09.528Z,0
2017-02-28T02:02:50.021Z,0
2017-02-28T02:03:30.529Z,0
2017-02-28T02:04:11.060Z,0
2017-02-28T02:04:51.552Z,0
2017-02-28T02:05:32.026Z,0
2017-02-28T02:06:12.524Z,0
2017-02-28T02:06:52.999Z,0
2017-02-28T02:07:33.432Z,0
2017-02-28T02:08:13.955Z,0
2017-02-28T02:08:54.478Z,0
2017-02-28T02:09:34.937Z,0
2017-02-28T02:10:15.419Z,0
2017-02-28T02:10:55.976Z,0
2017-02-28T02:11:36.427Z,0
2017-02-28T02:12:17.000Z,0
2017-02-28T02:12:57.493Z,0
2017-02-28T02:13:37.968Z,0
2017-02-28T02:14:18.479Z,0
2017-02-28T02:14:58.968Z,0
2017-02-28T02:15:39.527Z,0
2017-02-28T02:16:20.000Z,0
2017-02-28T02:17:00.490Z,0
2017-02-28T02:17:40.965Z,0
2017-02-28T02:18:21.420Z,0
2017-02-28T02:19:01.928Z,0
2017-02-28T02:19:42.408Z,0
2017-02-28T02:20:22.896Z,0
2017-02-28T02:21:03.406Z,0
2017-02-28T02:21:43.866Z,0
2017-02-28T02:22:24.345Z,0
2017-02-28T02:23:04.867Z,0
2017-02-28T02:23:45.299Z,0
2017-02-28T02:24:25.770Z,0
2017-02-28T02:25:06.225Z,0
2017-02-28T02:25:46.755Z,0
2017-02-28T02:26:27.295Z,0
2017-02-28T02:27:07.775Z,0
2017-02-28T02:27:48.334Z,0
2017-02-28T02:28:28.845Z,0
2017-02-28T02:29:09.297Z,0
2017-02-28T02:29:49.800Z,0
2017-02-28T02:30:30.320Z,0
2017-02-28T02:31:10.807Z,0
2017-02-28T02:31:51.332Z,0
2017-02-28T02:32:31.845Z,0
2017-02-28T02:33:12.349Z,0
2017-02-28T02:33:52.834Z,0
2017-02-28T02:34:33.310Z,0
2017-02-28T02:35:13.822Z,0
2017-02-28T02:35:54.291Z,0
2017-02-28T02:36:34.771Z,0
2017-02-28T02:37:15.307Z,0
2017-02-28T02:37:55.728Z,0
2017-02-28T02:38:36.186Z,0
2017-02-28T02:39:16.707Z,0
2017-02-28T02:39:57.221Z,0
2017-02-28T02:40:37.783Z,0
2017-02-28T02:41:18.219Z,0
2017-02-28T02:41:58.774Z,0
2017-02-28T02:42:39.218Z,0
2017-02-28T02:43:19.718Z,0
2017-02-28T02:44:00.178Z,0
2017-02-28T02:44:40.632Z,0
2017-02-28T02:45:21.121Z,0
2017-02-28T02:46:01.640Z,0
2017-02-28T02:46:42.153Z,0
2017-02-28T02:47:22.708Z,0
2017-02-28T02:48:03.141Z,0
2017-02-28T02:48:43.636Z,0
2017-02-28T02:49:24.178Z,0
2017-02-28T02:50:04.607Z,0
2017-02-28T02:50:45.089Z,0
2017-02-28T02:51:25.570Z,0
2017-02-28T02:52:06.064Z,0
2017-02-28T02:52:46.573Z,0
2017-02-28T02:53:27.010Z,0
2017-02-28T02:54:07.528Z,0
2017-02-28T02:54:47.966Z,0
2017-02-28T02:55:28.483Z,0
2017-02-28T02:56:09.691Z,0
2017-02-28T02:56:50.171Z,0
2017-02-28T02:57:30.665Z,0
2017-02-28T02:58:11.108Z,0
2017-02-28T02:58:51.647Z,0
2017-02-28T02:59:32.136Z,0
2017-02-28T03:00:12.619Z,0
2017-02-28T03:00:53.094Z,0
2017-02-28T03:01:33.565Z,0
2017-02-28T03:02:14.026Z,0
2017-02-28T03:02:54.586Z,0
2017-02-28T03:03:35.021Z,0
2017-02-28T03:04:15.514Z,0
2017-02-28T03:04:56.016Z,0
2017-02-28T03:05:36.476Z,0
2017-02-28T03:06:16.935Z,0
2017-02-28T03:06:57.485Z,0
2017-02-28T03:07:37.939Z,0
2017-02-28T03:08:18.488Z,0
2017-02-28T03:08:58.956Z,0
2017-02-28T03:09:39.496Z,0
2017-02-28T03:10:20.065Z,0
2017-02-28T03:11:00.586Z,0
2017-02-28T03:11:41.115Z,0
2017-02-28T03:12:21.563Z,0
2017-02-28T03:13:02.033Z,0
2017-02-28T03:13:42.573Z,0
2017-02-28T03:14:23.022Z,0
2017-02-28T03:15:03.546Z,0
2017-02-28T03:15:44.075Z,0
2017-02-28T03:16:24.554Z,0
2017-02-28T03:17:05.107Z,0
2017-02-28T03:17:46.382Z,0
2017-02-28T03:18:26.827Z,0
2017-02-28T03:19:07.361Z,0
2017-02-28T03:19:47.846Z,0
2017-02-28T03:20:28.404Z,0
2017-02-28T03:21:08.874Z,0
2017-02-28T03:21:49.413Z,0
2017-02-28T03:22:29.869Z,0
2017-02-28T03:23:11.182Z,0
2017-02-28T03:23:51.657Z,0
2017-02-28T03:24:32.120Z,0
2017-02-28T03:25:12.629Z,0
2017-02-28T03:25:53.113Z,0
2017-02-28T03:26:33.639Z,0
2017-02-28T03:27:14.098Z,0
2017-02-28T03:27:54.583Z,0
2017-02-28T03:28:35.078Z,0
2017-02-28T03:29:15.550Z,0
2017-02-28T03:29:55.992Z,0
2017-02-28T03:30:36.500Z,0
2017-02-28T03:31:16.991Z,0
2017-02-28T03:31:57.500Z,0
2017-02-28T03:32:37.982Z,0
2017-02-28T03:33:18.535Z,0
2017-02-28T03:33:59.012Z,0
2017-02-28T03:34:39.467Z,0
2017-02-28T03:35:19.945Z,0
2017-02-28T03:36:00.473Z,0
2017-02-28T03:36:40.996Z,0
2017-02-28T03:37:21.473Z,0
2017-02-28T03:38:01.954Z,0
2017-02-28T03:38:42.427Z,0
2017-02-28T03:39:22.895Z,0
2017-02-28T03:40:03.955Z,0
2017-02-28T03:40:44.480Z,0
2017-02-28T03:41:24.980Z,0
2017-02-28T03:42:05.465Z,0
2017-02-28T03:42:45.930Z,0
2017-02-28T03:43:26.373Z,0
2017-02-28T03:44:06.935Z,0
2017-02-28T03:44:47.408Z,0
2017-02-28T03:45:27.907Z,0
2017-02-28T03:46:08.383Z,0
2017-02-28T03:46:48.851Z,0
2017-02-28T03:47:29.322Z,0
2017-02-28T03:48:09.871Z,0
2017-02-28T03:48:50.374Z,0
2017-02-28T03:49:30.867Z,0
2017-02-28T03:50:11.335Z,0
2017-02-28T03:50:51.760Z,0
2017-02-28T03:51:32.281Z,0
2017-02-28T03:52:12.749Z,0
2017-02-28T03:52:53.258Z,0
2017-02-28T03:53:33.753Z,0
2017-02-28T03:54:14.210Z,0
2017-02-28T03:54:54.763Z,0
2017-02-28T03:55:35.198Z,0
2017-02-28T03:56:15.713Z,0
2017-02-28T03:56:56.185Z,0
2017-02-28T03:57:36.640Z,0
2017-02-28T03:58:17.129Z,0
2017-02-28T03:58:57.636Z,0
2017-02-28T03:59:38.064Z,0
2017-02-28T04:00:18.581Z,0
2017-02-28T04:00:59.081Z,0
2017-02-28T04:01:39.539Z,0
2017-02-28T04:02:20.059Z,0
2017-02-28T04:03:00.558Z,0
2017-02-28T04:03:41.047Z,0
2017-02-28T04:04:21.521Z,0
2017-02-28T04:05:01.982Z,0
2017-02-28T04:05:42.487Z,0
2017-02-28T04:06:22.994Z,0
2017-02-28T04:07:03.488Z,0
2017-02-28T04:07:44.016Z,0
2017-02-28T04:08:24.500Z,0
2017-02-28T04:09:04.992Z,0
2017-02-28T04:09:45.529Z,0
2017-02-28T04:10:26.007Z,0
2017-02-28T04:11:06.518Z,0
2017-02-28T04:11:46.928Z,0
2017-02-28T04:12:27.412Z,0
2017-02-28T04:13:07.872Z,0
2017-02-28T04:13:48.412Z,0
2017-02-28T04:14:28.837Z,0
2017-02-28T04:15:10.018Z,0
2017-02-28T04:15:50.531Z,0
2017-02-28T04:16:31.008Z,0
2017-02-28T04:17:11.480Z,0
2017-02-28T04:17:51.943Z,0
2017-02-28T04:18:32.537Z,0
2017-02-28T04:19:12.988Z,0
2017-02-28T04:19:53.549Z,0
2017-02-28T04:20:33.990Z,0
2017-02-28T04:21:14.495Z,0
2017-02-28T04:21:54.941Z,0
2017-02-28T04:22:35.426Z,0
2017-02-28T04:23:15.950Z,0
2017-02-28T04:23:56.484Z,0
2017-02-28T04:24:36.912Z,0
2017-02-28T04:25:17.490Z,0
2017-02-28T04:25:58.007Z,0
2017-02-28T04:26:38.469Z,0
2017-02-28T04:27:18.981Z,0
2017-02-28T04:27:59.440Z,0
2017-02-28T04:28:39.975Z,0
2017-02-28T04:29:20.382Z,0
2017-02-28T04:30:00.927Z,0
2017-02-28T04:30:41.446Z,0
2017-02-28T04:31:21.935Z,0
2017-02-28T04:32:02.478Z,0
2017-02-28T04:32:42.942Z,0
2017-02-28T04:33:23.490Z,0
2017-02-28T04:34:03.977Z,0
2017-02-28T04:34:44.481Z,0
2017-02-28T04:35:24.940Z,0
2017-02-28T04:36:05.423Z,0
2017-02-28T04:36:45.959Z,0
2017-02-28T04:37:26.435Z,0
2017-02-28T04:38:06.886Z,0
2017-02-28T04:38:47.464Z,0
2017-02-28T04:39:27.896Z,0
2017-02-28T04:40:08.371Z,0
2017-02-28T04:40:48.863Z,0
2017-02-28T04:41:29.380Z,0
2017-02-28T04:42:09.889Z,0
2017-02-28T04:42:50.367Z,0
2017-02-28T04:43:30.959Z,0
2017-02-28T04:44:11.466Z,0
2017-02-28T04:44:51.982Z,0
2017-02-28T04:45:32.515Z,0
2017-02-28T04:46:13.019Z,0
2017-02-28T04:46:53.539Z,0
2017-02-28T04:47:34.040Z,0
2017-02-28T04:48:14.510Z,0
2017-02-28T04:48:54.952Z,0
2017-02-28T04:49:35.489Z,0
2017-02-28T04:50:15.975Z,0
2017-02-28T04:50:56.436Z,0
2017-02-28T04:51:36.925Z,0
2017-02-28T04:52:17.467Z,0
2017-02-28T04:52:57.915Z,0
2017-02-28T04:53:38.402Z,0
2017-02-28T04:54:18.916Z,0
2017-02-28T04:54:59.399Z,0
2017-02-28T04:55:39.903Z,0
2017-02-28T04:56:20.389Z,0
2017-02-28T04:57:00.905Z,0
2017-02-28T04:57:41.435Z,0
2017-02-28T04:58:21.883Z,0
2017-02-28T04:59:03.994Z,0
2017-02-28T04:59:44.435Z,0
2017-02-28T05:00:24.936Z,0
2017-02-28T05:01:05.403Z,0
2017-02-28T05:01:45.903Z,0
2017-02-28T05:02:26.397Z,0
2017-02-28T05:03:06.873Z,0
2017-02-28T05:03:47.387Z,0
2017-02-28T05:04:27.894Z,0
2017-02-28T05:05:08.406Z,0
2017-02-28T05:05:48.871Z,0
2017-02-28T05:06:29.376Z,0
2017-02-28T05:07:09.868Z,0
2017-02-28T05:07:50.339Z,0
2017-02-28T05:08:30.825Z,0
2017-02-28T05:09:11.855Z,0
2017-02-28T05:09:52.370Z,0
2017-02-28T05:10:32.857Z,0
2017-02-28T05:11:13.307Z,0
2017-02-28T05:11:53.820Z,0
2017-02-28T05:12:34.252Z,0
2017-02-28T05:13:14.789Z,0
2017-02-28T05:13:55.254Z,0
2017-02-28T05:14:35.758Z,0
2017-02-28T05:15:16.290Z,0
2017-02-28T05:15:56.806Z,0
2017-02-28T05:16:37.283Z,0
2017-02-28T05:17:17.788Z,0
2017-02-28T05:17:58.308Z,0
2017-02-28T05:18:38.736Z,0
2017-02-28T05:19:19.282Z,0
2017-02-28T05:20:02.446Z,0
2017-02-28T05:20:42.925Z,0
2017-02-28T05:21:23.444Z,0
2017-02-28T05:22:03.967Z,0
2017-02-28T05:22:44.428Z,0
2017-02-28T05:23:24.925Z,0
2017-02-28T05:24:05.387Z,0
2017-02-28T05:24:45.895Z,0
2017-02-28T05:25:26.350Z,0
2017-02-28T05:26:06.817Z,0
2017-02-28T05:26:47.373Z,0
2017-02-28T05:27:27.789Z,0
2017-02-28T05:28:08.256Z,0
2017-02-28T05:28:48.705Z,0
2017-02-28T05:29:29.188Z,0
2017-02-28T05:30:09.687Z,0
2017-02-28T05:30:50.183Z,0
2017-02-28T05:31:30.651Z,0
2017-02-28T05:32:11.125Z,0
2017-02-28T05:32:51.592Z,0
2017-02-28T05:33:32.030Z,0
2017-02-28T05:34:12.545Z,0
2017-02-28T05:34:52.983Z,0
2017-02-28T05:35:33.503Z,0
2017-02-28T05:36:14.018Z,0
2017-02-28T05:36:54.496Z,0
2017-02-28T05:37:34.967Z,0
2017-02-28T05:38:15.456Z,0
2017-02-28T05:38:55.879Z,0
2017-02-28T05:39:36.384Z,0
2017-02-28T05:40:16.918Z,0
2017-02-28T05:40:57.395Z,0
2017-02-28T05:41:38.024Z,0
2017-02-28T05:42:18.477Z,0
2017-02-28T05:42:59.024Z,0
2017-02-28T05:43:39.534Z,0
2017-02-28T05:44:20.020Z,0
2017-02-28T05:45:00.501Z,0
2017-02-28T05:45:41.003Z,0
2017-02-28T05:46:21.472Z,0
2017-02-28T05:47:01.964Z,0
2017-02-28T05:47:42.427Z,0
2017-02-28T05:48:22.908Z,0
2017-02-28T05:49:03.395Z,0
2017-02-28T05:49:43.912Z,0
2017-02-28T05:50:24.426Z,0
2017-02-28T05:51:04.853Z,0
2017-02-28T05:51:45.376Z,0
2017-02-28T05:52:25.792Z,4
2017-02-28T05:53:06.315Z,4
2017-02-28T05:53:46.756Z,4
2017-02-28T05:54:27.271Z,8
2017-02-28T05:55:07.795Z,8
2017-02-28T05:55:48.270Z,8
2017-02-28T05:56:28.825Z,8
2017-02-28T05:57:09.271Z,8
2017-02-28T05:57:49.818Z,12
2017-02-28T05:58:30.277Z,12
2017-02-28T05:59:10.789Z,12
2017-02-28T05:59:51.294Z,16
2017-02-28T06:00:31.788Z,20
2017-02-28T06:01:12.284Z,24
2017-02-28T06:01:52.775Z,24
2017-02-28T06:02:33.291Z,28
2017-02-28T06:03:13.821Z,32
2017-02-28T06:03:54.352Z,36
2017-02-28T06:04:34.845Z,40
2017-02-28T06:05:15.317Z,44
2017-02-28T06:05:55.855Z,44
2017-02-28T06:06:36.339Z,52
2017-02-28T06:07:16.829Z,52
2017-02-28T06:07:57.363Z,56
2017-02-28T06:08:37.786Z,60
2017-02-28T06:09:18.283Z,72
2017-02-28T06:09:58.842Z,84
2017-02-28T06:10:39.322Z,92
2017-02-28T06:11:19.805Z,96
2017-02-28T06:12:00.287Z,92
2017-02-28T06:12:40.925Z,84
2017-02-28T06:13:21.419Z,72
2017-02-28T06:14:01.918Z,56
2017-02-28T06:14:42.422Z,64
2017-02-28T06:15:23.014Z,68
2017-02-28T06:16:03.465Z,68
2017-02-28T06:16:43.979Z,68
2017-02-28T06:17:24.517Z,68
2017-02-28T06:18:05.021Z,76
2017-02-28T06:18:45.540Z,88
2017-02-28T06:19:25.996Z,104
2017-02-28T06:20:06.482Z,128
2017-02-28T06:20:47.011Z,144
2017-02-28T06:21:27.561Z,164
2017-02-28T06:22:08.881Z,172
2017-02-28T06:22:49.372Z,168
2017-02-28T06:23:29.882Z,156
2017-02-28T06:24:10.344Z,156
2017-02-28T06:24:50.844Z,152
2017-02-28T06:25:31.295Z,144
2017-02-28T06:26:11.841Z,152
2017-02-28T06:26:52.314Z,180
2017-02-28T06:27:32.773Z,196
2017-02-28T06:28:13.265Z,204
2017-02-28T06:28:53.703Z,220
2017-02-28T06:29:34.183Z,232
2017-02-28T06:30:14.701Z,244
2017-02-28T06:30:56.103Z,276
2017-02-28T06:31:36.579Z,296
2017-02-28T06:32:17.068Z,296
2017-02-28T06:32:58.197Z,300
2017-02-28T06:33:38.655Z,296
2017-02-28T06:34:19.169Z,316
2017-02-28T06:35:00.231Z,348
2017-02-28T06:35:40.634Z,388
2017-02-28T06:36:21.200Z,388
2017-02-28T06:37:01.767Z,404
2017-02-28T06:37:42.331Z,468
2017-02-28T06:38:22.803Z,564
2017-02-28T06:39:03.289Z,592
2017-02-28T06:39:43.930Z,572
2017-02-28T06:40:24.256Z,516
2017-02-28T06:41:04.755Z,508
2017-02-28T06:41:45.196Z,456
2017-02-28T06:42:26.593Z,380
2017-02-28T06:43:07.962Z,408
2017-02-28T06:43:49.252Z,492
2017-02-28T06:44:30.679Z,416
2017-02-28T06:45:11.227Z,372
2017-02-28T06:45:52.809Z,340
2017-02-28T06:46:34.295Z,380
2017-02-28T06:47:16.335Z,380
2017-02-28T06:47:58.777Z,320
2017-02-28T06:48:40.904Z,344
2017-02-28T06:49:21.471Z,436
2017-02-28T06:50:03.796Z,480
2017-02-28T06:50:44.326Z,472
2017-02-28T06:51:28.540Z,412
2017-02-28T06:52:08.995Z,396
2017-02-28T06:52:50.560Z,420
2017-02-28T06:53:31.029Z,452
2017-02-28T06:54:13.967Z,476
2017-02-28T06:54:56.097Z,364
2017-02-28T06:55:36.650Z,380
2017-02-28T06:56:17.202Z,408
2017-02-28T06:56:57.658Z,448
2017-02-28T06:57:39.768Z,516
2017-02-28T06:58:21.865Z,540
2017-02-28T06:59:03.346Z,616
2017-02-28T06:59:44.963Z,720
2017-02-28T07:00:25.488Z,812
2017-02-28T07:01:07.816Z,852
2017-02-28T07:01:48.365Z,888
2017-02-28T07:02:30.562Z,936
2017-02-28T07:03:11.083Z,804
2017-02-28T07:03:51.560Z,772
2017-02-28T07:04:32.035Z,780
2017-02-28T07:05:13.067Z,936
2017-02-28T07:05:53.526Z,1040
2017-02-28T07:06:33.983Z,1148
2017-02-28T07:07:14.485Z,1316
2017-02-28T07:07:55.023Z,1444
2017-02-28T07:08:35.689Z,1424
2017-02-28T07:09:16.263Z,1288
2017-02-28T07:09:56.922Z,1204
2017-02-28T07:10:37.462Z,1168
2017-02-28T07:11:18.044Z,1176
2017-02-28T07:11:58.504Z,1164
2017-02-28T07:12:39.571Z,1260
2017-02-28T07:13:20.003Z,1408
2017-02-28T07:14:00.559Z,1512
2017-02-28T07:14:41.005Z,1628
2017-02-28T07:15:21.451Z,1704
2017-02-28T07:16:01.960Z,1728
2017-02-28T07:16:42.459Z,1728
2017-02-28T07:17:22.926Z,1720
2017-02-28T07:18:03.471Z,1728
2017-02-28T07:18:43.923Z,1756
2017-02-28T07:19:24.370Z,1820
2017-02-28T07:20:04.929Z,1780
2017-02-28T07:20:45.467Z,1704
2017-02-28T07:21:25.934Z,1584
2017-02-28T07:22:06.392Z,1416
2017-02-28T07:22:46.900Z,1368
2017-02-28T07:23:27.395Z,1648
2017-02-28T07:24:08.222Z,1784
2017-02-28T07:24:48.822Z,1300
2017-02-28T07:25:29.396Z,824
2017-02-28T07:26:09.900Z,560
2017-02-28T07:26:50.383Z,584
2017-02-28T07:27:30.990Z,724
2017-02-28T07:28:11.522Z,880
2017-02-28T07:28:52.049Z,1176
2017-02-28T07:29:32.569Z,1512
2017-02-28T07:30:13.111Z,1688
2017-02-28T07:30:53.607Z,1800
2017-02-28T07:31:34.072Z,1688
2017-02-28T07:32:14.575Z,1420
2017-02-28T07:32:55.104Z,1112
2017-02-28T07:33:35.594Z,1060
2017-02-28T07:34:16.090Z,1076
2017-02-28T07:34:56.529Z,1120
2017-02-28T07:35:37.144Z,1216
2017-02-28T07:36:17.612Z,1420
2017-02-28T07:36:58.112Z,1632
2017-02-28T07:37:39.204Z,1508
2017-02-28T07:38:20.316Z,1188
2017-02-28T07:39:00.787Z,1100
2017-02-28T07:39:41.307Z,1164
2017-02-28T07:40:21.788Z,1332
2017-02-28T07:41:02.779Z,1524
2017-02-28T07:41:43.342Z,1752
2017-02-28T07:42:23.908Z,1756
2017-02-28T07:43:04.836Z,1860
2017-02-28T07:43:46.180Z,2016
2017-02-28T07:44:27.123Z,2176
2017-02-28T07:45:07.644Z,2092
2017-02-28T07:45:48.147Z,1976
2017-02-28T07:46:28.650Z,1776
2017-02-28T07:47:11.123Z,1792
2017-02-28T07:47:59.064Z,1952
2017-02-28T07:48:42.427Z,2176
2017-02-28T07:49:23.544Z,1972
2017-02-28T07:50:04.043Z,2012
2017-02-28T07:50:44.853Z,2056
2017-02-28T07:51:25.321Z,2168
2017-02-28T07:52:06.541Z,2200
2017-02-28T07:52:47.265Z,1820
2017-02-28T07:53:27.896Z,1676
2017-02-28T07:54:08.334Z,1164
2017-02-28T07:54:48.798Z,1012
2017-02-28T07:55:29.304Z,1364
2017-02-28T07:56:11.089Z,2156
2017-02-28T07:57:03.169Z,2260
2017-02-28T07:57:47.356Z,1792
2017-02-28T07:58:27.811Z,1336
2017-02-28T07:59:08.312Z,1124
2017-02-28T07:59:49.853Z,1296
2017-02-28T08:00:32.114Z,1308
2017-02-28T08:01:13.082Z,972
2017-02-28T08:01:53.903Z,684
2017-02-28T08:02:34.759Z,1060
2017-02-28T08:03:17.992Z,1236
2017-02-28T08:03:58.530Z,1228
2017-02-28T08:04:39.109Z,1196
2017-02-28T08:05:19.580Z,884
2017-02-28T08:06:00.054Z,1100
2017-02-28T08:06:41.452Z,1272
2017-02-28T08:07:24.087Z,1292
2017-02-28T08:08:05.398Z,1248
2017-02-28T08:08:45.970Z,1748
2017-02-28T08:09:26.397Z,2132
2017-02-28T08:10:06.900Z,1804
2017-02-28T08:10:47.416Z,2068
2017-02-28T08:11:28.443Z,2576
2017-02-28T08:12:09.135Z,2968
2017-02-28T08:12:51.566Z,3216
2017-02-28T08:13:33.136Z,3220
2017-02-28T08:14:13.612Z,3304
2017-02-28T08:14:54.090Z,3488
2017-02-28T08:15:34.652Z,3996
2017-02-28T08:16:16.069Z,4044
2017-02-28T08:16:56.691Z,3896
2017-02-28T08:17:37.855Z,3484
2017-02-28T08:18:18.266Z,2828
2017-02-28T08:18:58.749Z,2960
2017-02-28T08:19:39.973Z,3072
2017-02-28T08:20:21.171Z,3568
2017-02-28T08:21:01.687Z,3372
2017-02-28T08:21:42.217Z,3396
2017-02-28T08:22:23.362Z,3388
2017-02-28T08:23:05.068Z,3432
2017-02-28T08:23:45.626Z,3548
2017-02-28T08:24:27.569Z,3552
2017-02-28T08:25:09.099Z,3236
2017-02-28T08:25:53.168Z,3064
2017-02-28T08:26:33.706Z,2996
2017-02-28T08:27:14.068Z,2584
2017-02-28T08:27:56.084Z,2060
2017-02-28T08:28:36.629Z,1824
2017-02-28T08:29:18.094Z,1708
2017-02-28T08:29:59.400Z,2004
2017-02-28T08:30:41.464Z,2456
2017-02-28T08:31:23.703Z,2672
2017-02-28T08:32:04.896Z,2684
2017-02-28T08:32:45.874Z,3212
2017-02-28T08:33:26.573Z,3392
2017-02-28T08:34:08.452Z,3576
2017-02-28T08:34:48.953Z,3112
2017-02-28T08:35:29.504Z,2456
2017-02-28T08:36:13.747Z,3108
2017-02-28T08:36:54.421Z,2904
2017-02-28T08:37:36.073Z,2112
2017-02-28T08:38:21.521Z,2040
2017-02-28T08:40:45.138Z,3108
2017-02-28T08:41:33.693Z,3768
2017-02-28T08:42:24.349Z,4496
2017-02-28T08:43:12.177Z,6048
2017-02-28T08:44:02.839Z,6760
2017-02-28T08:44:52.589Z,5924
2017-02-28T08:45:44.312Z,5756
2017-02-28T08:46:31.071Z,6168
2017-02-28T08:47:19.675Z,5936
2017-02-28T08:48:02.615Z,5532
2017-02-28T08:48:43.075Z,5560
2017-02-28T08:49:23.550Z,5940
2017-02-28T08:50:05.783Z,3912
2017-02-28T08:50:46.338Z,4004
2017-02-28T08:51:27.022Z,3904
2017-02-28T08:52:07.744Z,3492
2017-02-28T08:52:48.650Z,3500
2017-02-28T08:53:29.368Z,3600
2017-02-28T08:54:10.105Z,4088
2017-02-28T08:54:50.876Z,4136
2017-02-28T08:55:31.411Z,3888
2017-02-28T08:56:11.881Z,4708
2017-02-28T08:56:52.402Z,5848
2017-02-28T08:57:32.899Z,6640
2017-02-28T08:58:13.420Z,6852
2017-02-28T08:58:53.907Z,6868
2017-02-28T08:59:34.445Z,7088
2017-02-28T09:00:14.949Z,7200
2017-02-28T09:00:55.467Z,6864
2017-02-28T09:01:35.916Z,6808
2017-02-28T09:02:16.425Z,7204
2017-02-28T09:02:56.975Z,6888
2017-02-28T09:03:37.473Z,7180
2017-02-28T09:04:17.935Z,7420
2017-02-28T09:04:58.400Z,6920
2017-02-28T09:05:38.921Z,6156
2017-02-28T09:06:19.406Z,5492
2017-02-28T09:06:59.951Z,5724
2017-02-28T09:07:40.524Z,6084
2017-02-28T09:08:21.047Z,5388
2017-02-28T09:09:01.551Z,5604
2017-02-28T09:09:42.045Z,5432
2017-02-28T09:10:22.593Z,5828
2017-02-28T09:11:03.162Z,5012
2017-02-28T09:11:43.707Z,5112
2017-02-28T09:12:24.245Z,4788
2017-02-28T09:13:04.721Z,4592
2017-02-28T09:13:46.075Z,4756
2017-02-28T09:14:26.543Z,4776
2017-02-28T09:15:07.057Z,5204
2017-02-28T09:15:47.598Z,5604
2017-02-28T09:16:28.245Z,4848
2017-02-28T09:17:08.761Z,3684
2017-02-28T09:17:49.221Z,3140
2017-02-28T09:18:31.532Z,2148
2017-02-28T09:19:11.911Z,1792
2017-02-28T09:19:52.437Z,2496
2017-02-28T09:20:33.060Z,2196
2017-02-28T09:21:13.533Z,2572
2017-02-28T09:21:54.169Z,2688
2017-02-28T09:22:34.724Z,2444
2017-02-28T09:23:15.301Z,1792
2017-02-28T09:23:55.768Z,1368
2017-02-28T09:24:36.292Z,1636
2017-02-28T09:25:16.800Z,1960
2017-02-28T09:25:57.221Z,2540
2017-02-28T09:26:37.727Z,3444
2017-02-28T09:27:19.221Z,4112
2017-02-28T09:27:59.743Z,4568
2017-02-28T09:28:40.227Z,4864
2017-02-28T09:29:20.826Z,5268
2017-02-28T09:30:01.769Z,6260
2017-02-28T09:30:42.594Z,7208
2017-02-28T09:31:23.031Z,7648
2017-02-28T09:32:03.555Z,6516
2017-02-28T09:32:50.761Z,5792
2017-02-28T09:33:38.448Z,6004
2017-02-28T09:34:28.496Z,6904
2017-02-28T09:35:16.575Z,6876
2017-02-28T09:36:11.069Z,6280
2017-02-28T09:36:57.365Z,6196
2017-02-28T09:37:51.069Z,6748
2017-02-28T09:38:31.237Z,5544
2017-02-28T09:39:11.827Z,4252
2017-02-28T09:39:55.682Z,3308
2017-02-28T09:40:38.574Z,2384
2017-02-28T09:41:19.799Z,2048
2017-02-28T09:42:01.317Z,2044
2017-02-28T09:42:41.823Z,2180
2017-02-28T09:43:22.323Z,2548
2017-02-28T09:44:04.863Z,2972
2017-02-28T09:44:46.268Z,3200